Time;durP1;ratioP1;P1;durP2;ratioP2;P2;SDS_P1;SDS_P2;PMS_P1;PMS_P2;Temp;Humidity;BMP_temperature;BMP_pressure;BME280_temperature;BME280_humidity;BME280_pressure;Samples;Min_cycle;Max_cycle;Signal;HPM_P1;HPM_P2
2022/10/21 00:00:12;;;;;;;4.72;2.42;;;;;;;1.53;100.00;100496.92;1672389;84;21067;-67
2022/10/21 00:02:41;;;;;;;4.85;2.35;;;;;;;1.53;100.00;100486.20;1670233;84;21111;-67
2022/10/21 00:05:09;;;;;;;7.65;2.83;;;;;;;1.43;100.00;100491.40;1675782;84;21118;-67
2022/10/21 00:07:36;;;;;;;4.70;2.50;;;;;;;1.35;100.00;100497.41;1683615;84;21119;-67
2022/10/21 00:10:03;;;;;;;4.17;2.47;;;;;;;1.32;100.00;100498.63;1682155;84;21620;-67
2022/10/21 00:12:30;;;;;;;4.87;2.47;;;;;;;1.31;100.00;100496.16;1691429;84;21128;-67
2022/10/21 00:14:56;;;;;;;6.30;2.40;;;;;;;1.29;100.00;100500.36;1694840;84;21106;-67
2022/10/21 00:17:23;;;;;;;;;;;;;;;1.26;100.00;100495.89;1683909;84;21114;-67
2022/10/21 00:19:50;;;;;;;5.92;2.40;;;;;;;1.18;100.00;100501.39;1686258;83;20177;-67
2022/10/21 00:22:17;;;;;;;5.80;2.20;;;;;;;1.04;100.00;100498.27;1677995;84;21087;-67
2022/10/21 00:24:44;;;;;;;4.87;2.20;;;;;;;1.00;100.00;100505.34;1684787;84;21090;-67
2022/10/21 00:27:10;;;;;;;3.95;2.05;;;;;;;1.02;100.00;100504.34;1670118;84;21751;-67
2022/10/21 00:29:38;;;;;;;5.28;2.30;;;;;;;1.03;100.00;100500.11;1670486;84;21067;-67
2022/10/21 00:32:05;;;;;;;4.22;2.10;;;;;;;1.03;100.00;100506.81;1682616;84;21724;-67
2022/10/21 00:34:32;;;;;;;6.35;2.10;;;;;;;0.97;100.00;100507.58;1692764;84;21113;-67
2022/10/21 00:36:58;;;;;;;4.75;2.12;;;;;;;0.88;100.00;100506.06;1678722;84;21581;-67
2022/10/21 00:39:25;;;;;;;4.97;2.70;;;;;;;0.86;100.00;100514.78;1672159;84;21082;-68
2022/10/21 00:41:51;;;;;;;;;;;;;;;0.86;100.00;100517.47;1697381;83;21375;-67
2022/10/21 00:44:18;;;;;;;5.50;2.10;;;;;;;0.85;100.00;100516.62;1691530;84;20131;-67
2022/10/21 00:47:03;;;;;;;4.47;2.30;;;;;;;0.79;100.00;100508.52;1694239;84;21126;-68
2022/10/21 00:49:35;;;;;;;4.33;2.00;;;;;;;0.75;100.00;100509.41;1691280;84;21049;-67
2022/10/21 00:52:03;;;;;;;5.05;2.25;;;;;;;0.65;100.00;100506.21;1705897;83;21124;-67
2022/10/21 00:56:54;;;;;;;4.53;2.40;;;;;;;0.61;100.00;100494.20;1781802;79;22938;-67
2022/10/21 00:59:21;;;;;;;;;;;;;;;0.55;100.00;100503.01;1728925;81;21517;-67
2022/10/21 01:01:48;;;;;;;3.85;2.40;;;;;;;0.59;100.00;100496.77;1731442;82;20276;-67
2022/10/21 01:04:14;;;;;;;4.35;2.33;;;;;;;0.55;100.00;100489.61;1735954;82;20975;-67
2022/10/21 01:06:41;;;;;;;5.40;2.70;;;;;;;0.53;100.00;100487.64;1723319;82;21089;-67
2022/10/21 01:09:08;;;;;;;7.53;2.92;;;;;;;0.45;100.00;100496.62;1723845;81;21093;-68
2022/10/21 01:11:46;;;;;;;6.15;2.60;;;;;;;0.37;100.00;100495.88;1738511;80;21612;-67
2022/10/21 01:14:24;;;;;;;4.12;2.30;;;;;;;0.38;100.00;100497.55;1728293;82;20971;-67
2022/10/21 01:17:15;;;;;;;6.15;2.40;;;;;;;0.38;100.00;100497.05;1680559;83;21112;-67
2022/10/21 01:20:26;;;;;;;4.78;2.70;;;;;;;0.41;100.00;100499.85;1691453;83;21018;-67
2022/10/21 01:23:04;;;;;;;5.55;2.80;;;;;;;0.35;100.00;100493.91;1664088;85;21082;-67
2022/10/21 01:25:57;;;;;;;5.50;2.92;;;;;;;0.24;100.00;100511.29;1669079;84;21101;-67
2022/10/21 01:29:17;;;;;;;4.33;2.80;;;;;;;0.22;100.00;100520.50;1670923;84;21142;-67
2022/10/21 01:32:25;;;;;;;14.78;2.60;;;;;;;0.22;100.00;100521.84;1687812;83;21088;-67
2022/10/21 01:34:57;;;;;;;5.45;3.05;;;;;;;0.20;100.00;100527.41;1702337;83;21042;-67
2022/10/21 01:37:38;;;;;;;4.80;2.80;;;;;;;0.11;100.00;100519.13;1705111;83;21065;-67
2022/10/21 01:40:10;;;;;;;7.08;2.83;;;;;;;0.13;100.00;100526.48;1695144;83;21490;-67
2022/10/21 01:42:53;;;;;;;4.67;2.60;;;;;;;0.17;100.00;100521.08;1677484;84;22400;-67
2022/10/21 01:45:37;;;;;;;6.25;2.87;;;;;;;0.19;100.00;100518.20;1674206;85;21043;-67
2022/10/21 01:48:13;;;;;;;6.20;2.77;;;;;;;0.18;100.00;100515.22;1671908;84;21126;-67
2022/10/21 01:50:51;;;;;;;6.92;2.92;;;;;;;0.13;100.00;100525.14;1699062;83;21143;-67
2022/10/21 01:53:17;;;;;;;4.03;2.60;;;;;;;0.11;100.00;100521.80;1655475;85;21599;-67
2022/10/21 01:55:44;;;;;;;5.72;2.58;;;;;;;0.14;100.00;100520.12;1671735;84;21131;-67
2022/10/21 01:58:15;;;;;;;7.42;2.27;;;;;;;0.19;100.00;100512.84;1666744;85;21103;-67
2022/10/21 02:00:42;;;;;;;5.78;2.77;;;;;;;0.17;100.00;100521.08;1661492;84;21079;-67
2022/10/21 02:03:10;;;;;;;6.25;3.17;;;;;;;0.12;100.00;100516.78;1687796;83;21078;-67
2022/10/21 02:05:38;;;;;;;3.92;2.40;;;;;;;0.11;100.00;100504.94;1707356;83;21436;-68
2022/10/21 02:08:04;;;;;;;6.40;2.70;;;;;;;0.12;100.00;100512.77;1692775;82;21655;-67
2022/10/21 02:10:35;;;;;;;5.55;2.83;;;;;;;0.14;100.00;100519.28;1718158;82;21034;-67
2022/10/21 02:13:04;;;;;;;6.25;2.80;;;;;;;0.12;100.00;100518.12;1710993;82;21068;-67
2022/10/21 02:15:31;;;;;;;6.67;2.83;;;;;;;0.11;100.00;100521.80;1714009;83;21091;-67
2022/10/21 02:18:06;;;;;;;6.72;3.10;;;;;;;0.07;100.00;100520.53;1713703;82;21105;-67
2022/10/21 02:20:36;;;;;;;5.03;2.47;;;;;;;0.03;100.00;100524.59;1714666;82;20983;-67
2022/10/21 02:23:03;;;;;;;5.40;3.05;;;;;;;0.05;100.00;100525.23;1709756;82;21601;-67
2022/10/21 02:25:32;;;;;;;6.75;3.45;;;;;;;0.06;100.00;100534.93;1709968;84;21043;-67
2022/10/21 02:27:59;;;;;;;5.78;3.00;;;;;;;0.02;100.00;100528.28;1719551;82;21054;-67
2022/10/21 02:30:28;;;;;;;6.33;2.90;;;;;;;-0.02;100.00;100521.13;1715603;82;21083;-67
2022/10/21 02:33:08;;;;;;;6.17;3.12;;;;;;;-0.07;100.00;100516.81;1712229;81;21066;-67
2022/10/21 02:35:54;;;;;;;5.40;2.47;;;;;;;-0.06;100.00;100521.66;1706936;83;21098;-67
2022/10/21 02:38:27;;;;;;;4.65;2.50;;;;;;;-0.06;100.00;100529.70;1709360;82;21058;-67
2022/10/21 02:40:59;;;;;;;4.92;2.60;;;;;;;-0.07;100.00;100534.21;1711923;82;21042;-67
2022/10/21 02:43:37;;;;;;;4.05;2.40;;;;;;;-0.14;100.00;100535.13;1715600;82;21031;-67
2022/10/21 02:46:09;;;;;;;3.98;2.45;;;;;;;-0.22;100.00;100543.26;1709993;82;21062;-68
2022/10/21 02:48:37;;;;;;;5.47;2.40;;;;;;;-0.23;100.00;100544.27;1707694;83;21534;-68
2022/10/21 02:51:05;;;;;;;5.25;2.60;;;;;;;-0.23;100.00;100549.11;1710317;82;21022;-67
2022/10/21 02:53:32;;;;;;;6.45;3.00;;;;;;;-0.22;100.00;100548.11;1714124;82;21067;-67
2022/10/21 02:55:58;;;;;;;6.28;3.10;;;;;;;-0.25;100.00;100548.98;1708540;83;21552;-67
2022/10/21 02:58:25;;;;;;;5.62;3.15;;;;;;;-0.30;100.00;100549.52;1706549;83;21420;-67
2022/10/21 03:00:51;;;;;;;;;;;;;;;-0.31;100.00;100557.21;1711907;82;21592;-67
2022/10/21 03:03:17;;;;;;;7.15;3.33;;;;;;;-0.37;100.00;100545.07;1714823;82;20127;-67
2022/10/21 03:05:44;;;;;;;9.63;3.40;;;;;;;-0.32;100.00;100556.88;1716713;82;21370;-67
2022/10/21 03:08:11;;;;;;;8.03;2.92;;;;;;;-0.34;100.00;100556.74;1706121;83;21094;-68
2022/10/21 03:10:38;;;;;;;8.70;3.05;;;;;;;-0.38;100.00;100550.09;1706317;82;21037;-68
2022/10/21 03:13:06;;;;;;;8.08;2.92;;;;;;;-0.39;100.00;100557.81;1711270;82;21015;-67
2022/10/21 03:15:33;;;;;;;5.08;2.75;;;;;;;-0.37;100.00;100547.75;1689208;84;21028;-68
2022/10/21 03:18:00;;;;;;;7.97;3.05;;;;;;;-0.35;100.00;100549.72;1710176;82;21030;-67
2022/10/21 03:20:26;;;;;;;6.42;2.45;;;;;;;-0.38;100.00;100550.92;1710183;82;21031;-67
2022/10/21 03:22:54;;;;;;;5.55;3.15;;;;;;;-0.42;100.00;100551.45;1709587;82;21154;-67
2022/10/21 03:25:20;;;;;;;7.72;3.22;;;;;;;-0.44;100.00;100560.19;1716561;82;21011;-67
2022/10/21 03:27:49;;;;;;;5.37;3.00;;;;;;;-0.43;100.00;100552.49;1682997;83;21074;-67
2022/10/21 03:30:17;;;;;;;7.85;3.30;;;;;;;-0.42;100.00;100550.13;1688826;83;21052;-68
2022/10/21 03:32:43;;;;;;;6.17;3.40;;;;;;;-0.44;100.00;100534.27;1712438;82;21508;-67
2022/10/21 03:35:11;;;;;;;6.20;3.12;;;;;;;-0.46;100.00;100535.47;1676416;84;21494;-67
2022/10/21 03:37:38;;;;;;;9.95;3.52;;;;;;;-0.48;100.00;100538.31;1711856;82;21082;-67
2022/10/21 03:40:06;;;;;;;6.67;3.37;;;;;;;-0.47;100.00;100539.98;1712488;83;21649;-68
2022/10/21 03:42:32;;;;;;;6.62;3.45;;;;;;;-0.46;100.00;100539.48;1713875;82;21565;-68
2022/10/21 03:44:58;;;;;;;5.75;3.27;;;;;;;-0.47;100.00;100527.11;1684697;84;21045;-68
2022/10/21 03:47:25;;;;;;;6.50;3.77;;;;;;;-0.52;100.00;100539.19;1706618;82;21101;-68
2022/10/21 03:49:51;;;;;;;6.55;3.55;;;;;;;-0.56;100.00;100533.03;1708078;82;21046;-68
2022/10/21 03:52:18;;;;;;;;;;;;;;;-0.56;100.00;100533.86;1714634;81;21166;-68
2022/10/21 03:54:44;;;;;;;6.25;3.30;;;;;;;-0.54;100.00;100535.03;1713343;82;20154;-68
2022/10/21 03:57:11;;;;;;;5.17;3.22;;;;;;;-0.60;100.00;100538.41;1713805;82;21535;-68
2022/10/21 03:59:37;;;;;;;6.25;3.22;;;;;;;-0.61;100.00;100534.09;1721615;82;21067;-68
2022/10/21 04:02:04;;;;;;;;;;;;;;;-0.66;100.00;100532.45;1718954;83;21386;-68
2022/10/21 04:04:30;;;;;;;5.40;3.30;;;;;;;-0.67;100.00;100530.78;1716649;81;20183;-67
2022/10/21 04:06:57;;;;;;;5.75;3.20;;;;;;;-0.67;100.00;100536.97;1718345;82;21086;-67
2022/10/21 04:09:23;;;;;;;7.92;3.72;;;;;;;-0.63;100.00;100535.59;1726945;82;20971;-68
2022/10/21 04:11:50;;;;;;;8.60;4.00;;;;;;;-0.61;100.00;100535.43;1741644;81;21353;-68
2022/10/21 04:14:16;;;;;;;6.40;3.77;;;;;;;-0.60;100.00;100538.41;1708725;81;21633;-67
2022/10/21 04:16:43;;;;;;;8.33;3.70;;;;;;;-0.65;100.00;100539.47;1725143;81;21096;-68
2022/10/21 04:19:17;;;;;;;5.87;3.62;;;;;;;-0.66;100.00;100543.15;1723427;82;21042;-68
2022/10/21 04:21:45;;;;;;;5.35;3.27;;;;;;;-0.61;100.00;100537.60;1726192;81;21094;-67
2022/10/21 04:24:12;;;;;;;11.60;3.80;;;;;;;-0.58;100.00;100549.77;1721854;81;21035;-67
2022/10/21 04:26:41;;;;;;;8.65;4.53;;;;;;;-0.57;100.00;100546.09;1722537;81;21133;-68
2022/10/21 04:29:07;;;;;;;9.85;4.28;;;;;;;-0.59;100.00;100547.60;1718764;82;21070;-67
2022/10/21 04:31:34;;;;;;;6.87;4.50;;;;;;;-0.62;100.00;100537.27;1721232;81;21067;-69
2022/10/21 04:34:01;;;;;;;8.58;4.22;;;;;;;-0.61;100.00;100539.44;1716438;81;21021;-69
2022/10/21 04:36:27;;;;;;;;;;;;;;;-0.57;100.00;100545.56;1717221;82;21067;-67
2022/10/21 04:38:53;;;;;;;7.42;4.65;;;;;;;-0.52;100.00;100541.02;1717939;82;20144;-67
2022/10/21 04:41:20;;;;;;;8.98;4.30;;;;;;;-0.56;100.00;100543.73;1718826;81;21646;-65
2022/10/21 04:43:46;;;;;;;11.60;4.87;;;;;;;-0.56;100.00;100542.39;1685903;83;21026;-66
2022/10/21 04:46:14;;;;;;;6.70;4.33;;;;;;;-0.60;100.00;100554.45;1684006;84;21041;-68
2022/10/21 04:48:42;;;;;;;8.60;4.40;;;;;;;-0.60;100.00;100543.75;1680776;84;21357;-65
2022/10/21 04:51:09;;;;;;;9.15;4.60;;;;;;;-0.56;100.00;100552.59;1676215;84;21596;-68
2022/10/21 04:53:35;;;;;;;7.80;4.33;;;;;;;-0.51;100.00;100544.87;1678130;84;21618;-68
2022/10/21 04:56:02;;;;;;;;;;;;;;;-0.44;100.00;100538.28;1681737;84;21071;-67
2022/10/21 04:58:29;;;;;;;10.68;3.83;;;;;;;-0.43;100.00;100541.29;1634147;88;20125;-67
2022/10/21 05:00:55;;;;;;;8.15;3.40;;;;;;;-0.50;100.00;100548.38;1650242;84;21614;-67
2022/10/21 05:03:23;;;;;;;6.92;3.52;;;;;;;-0.45;100.00;100547.81;1726937;82;21117;-67
2022/10/21 05:05:50;;;;;;;7.45;4.03;;;;;;;-0.32;100.00;100553.40;1709682;83;21054;-68
2022/10/21 05:08:19;;;;;;;9.73;3.72;;;;;;;-0.23;100.00;100549.11;1713894;82;21082;-68
2022/10/21 05:10:45;;;;;;;10.40;4.00;;;;;;;-0.15;100.00;100541.02;1712181;82;21044;-68
2022/10/21 05:13:12;;;;;;;;;;;;;;;-0.11;100.00;100539.61;1714875;82;21181;-68
2022/10/21 05:15:38;;;;;;;6.78;3.70;;;;;;;-0.05;100.00;100535.37;1707523;82;20125;-66
2022/10/21 05:18:05;;;;;;;6.65;3.50;;;;;;;-0.01;100.00;100550.90;1725151;82;21649;-66
2022/10/21 05:20:32;;;;;;;6.22;3.52;;;;;;;0.10;100.00;100552.80;1733895;82;21023;-67
2022/10/21 05:22:58;;;;;;;6.37;3.72;;;;;;;0.20;100.00;100555.52;1712239;82;21130;-67
2022/10/21 05:25:25;;;;;;;9.13;5.00;;;;;;;0.27;100.00;100549.74;1717698;82;21046;-67
2022/10/21 05:27:51;;;;;;;10.38;5.62;;;;;;;0.32;100.00;100557.23;1717810;82;21050;-67
2022/10/21 05:30:17;;;;;;;14.70;7.58;;;;;;;0.35;100.00;100559.03;1723923;82;22238;-68
2022/10/21 05:32:44;;;;;;;13.30;6.92;;;;;;;0.46;100.00;100561.74;1679831;84;21074;-67
2022/10/21 05:35:10;;;;;;;13.70;6.70;;;;;;;0.60;100.00;100558.22;1663220;85;21064;-67
2022/10/21 05:37:37;;;;;;;12.60;7.00;;;;;;;0.71;100.00;100557.70;1664131;85;21146;-68
2022/10/21 05:40:06;;;;;;;12.50;6.08;;;;;;;0.79;100.00;100568.32;1711803;83;21049;-67
2022/10/21 05:42:33;;;;;;;10.72;5.70;;;;;;;0.82;100.00;100569.28;1714493;82;21394;-68
2022/10/21 05:44:59;;;;;;;8.43;5.40;;;;;;;0.87;100.00;100574.09;1702898;84;21277;-68
2022/10/21 05:47:26;;;;;;;8.18;4.67;;;;;;;0.91;100.00;100578.89;1714698;83;21049;-67
2022/10/21 05:49:52;;;;;;;7.20;4.67;;;;;;;1.02;100.00;100574.05;1717594;83;21009;-67
2022/10/21 05:52:18;;;;;;;9.03;5.50;;;;;;;1.10;100.00;100585.47;1715792;82;21594;-68
2022/10/21 05:54:45;;;;;;;11.90;5.83;;;;;;;1.11;100.00;100581.77;1713221;82;20975;-68
2022/10/21 05:57:11;;;;;;;9.28;5.87;;;;;;;1.10;100.00;100575.28;1712800;83;21090;-68
2022/10/21 05:59:38;;;;;;;11.10;5.95;;;;;;;1.07;100.00;100569.77;1720881;83;21529;-68
2022/10/21 06:02:04;;;;;;;9.85;5.40;;;;;;;1.14;100.00;100584.08;1720897;82;21114;-68
2022/10/21 06:04:31;;;;;;;10.45;5.62;;;;;;;1.28;100.00;100571.63;1720183;82;21038;-66
2022/10/21 06:06:57;;;;;;;8.75;5.35;;;;;;;1.40;100.00;100584.86;1712824;82;21082;-68
2022/10/21 06:09:24;;;;;;;10.78;5.55;;;;;;;1.45;100.00;100583.78;1686471;84;21048;-68
2022/10/21 06:11:50;;;;;;;;;;;;;;;1.46;100.00;100574.69;1662734;85;21517;-68
2022/10/21 06:14:18;;;;;;;11.90;6.33;;;;;;;1.48;100.00;100584.23;1659054;85;20195;-69
2022/10/21 06:16:45;;;;;;;12.55;5.50;;;;;;;1.45;100.00;100585.93;1719879;82;21616;-69
2022/10/21 06:19:12;;;;;;;12.20;5.70;;;;;;;1.57;100.00;100584.91;1720445;83;21066;-68
2022/10/21 06:21:39;;;;;;;9.88;6.33;;;;;;;1.69;100.00;100593.28;1725120;81;21110;-68
2022/10/21 06:24:05;;;;;;;;;;;;;;;1.76;100.00;100582.09;1724474;82;21625;-68
2022/10/21 06:26:32;;;;;;;11.90;6.65;;;;;;;1.81;100.00;100595.74;1721675;82;20274;-68
2022/10/21 06:28:58;;;;;;;11.22;6.30;;;;;;;1.74;100.00;100586.80;1715263;82;21526;-68
2022/10/21 06:31:25;;;;;;;13.13;5.80;;;;;;;1.84;100.00;100585.44;1720275;82;21075;-68
2022/10/21 06:33:51;;;;;;;10.80;6.35;;;;;;;1.95;100.00;100596.16;1721272;83;21066;-69
2022/10/21 06:36:18;;;;;;;9.08;5.70;;;;;;;2.03;100.00;100592.50;1713442;82;22040;-68
2022/10/21 06:38:45;;;;;;;10.20;6.50;;;;;;;2.12;100.00;100589.50;1712858;83;21035;-68
2022/10/21 14:02:23;;;;;;;3.40;1.70;;;;;;;6.76;100.00;100411.87;1757954;79;22877;-65
2022/10/21 14:04:50;;;;;;;3.77;1.92;;;;;;;6.72;100.00;100411.20;1713482;81;20979;-65
2022/10/21 14:07:18;;;;;;;4.00;1.67;;;;;;;6.77;100.00;100402.67;1719960;81;21012;-66
2022/10/21 14:09:54;;;;;;;4.78;2.10;;;;;;;6.90;100.00;100404.38;1724287;83;20977;-65
2022/10/21 14:12:35;;;;;;;4.28;1.85;;;;;;;7.04;100.00;100400.40;1715346;81;20966;-65
2022/10/21 14:15:12;;;;;;;4.70;2.08;;;;;;;7.11;100.00;100402.47;1712563;83;20984;-65
2022/10/21 14:17:41;;;;;;;5.80;1.90;;;;;;;7.10;100.00;100399.46;1718622;81;22016;-64
2022/10/21 14:20:14;;;;;;;7.65;3.12;;;;;;;7.12;100.00;100397.33;1699543;84;21076;-65
2022/10/21 14:22:41;;;;;;;6.28;2.70;;;;;;;7.11;100.00;100390.29;1719738;81;21093;-65
2022/10/21 14:25:14;;;;;;;16.25;8.88;;;;;;;7.12;100.00;100383.80;1690038;83;21085;-66
2022/10/21 14:27:45;;;;;;;165.15;108.07;;;;;;;7.10;100.00;100383.22;1647574;84;21050;-65
2022/10/21 14:30:22;;;;;;;148.25;106.85;;;;;;;7.10;100.00;100389.16;1651852;84;21668;-66
2022/10/21 14:32:49;;;;;;;75.22;53.87;;;;;;;7.06;100.00;100382.55;1650603;85;21062;-65
2022/10/21 14:35:21;;;;;;;19.48;13.88;;;;;;;7.02;100.00;100378.13;1698555;84;21009;-65
2022/10/21 14:37:59;;;;;;;22.70;14.95;;;;;;;6.97;100.00;100384.27;1677121;83;21106;-65
2022/10/21 14:40:36;;;;;;;19.12;13.62;;;;;;;6.97;100.00;100381.56;1699842;83;20971;-66
2022/10/21 14:43:19;;;;;;;23.35;15.18;;;;;;;7.01;100.00;100382.72;1718139;81;21091;-64
2022/10/21 14:45:50;;;;;;;24.72;16.27;;;;;;;6.98;100.00;100376.42;1720490;83;20989;-65
2022/10/21 14:48:28;;;;;;;17.98;11.88;;;;;;;6.89;100.00;100381.06;1720263;81;21036;-65
2022/10/21 14:51:01;;;;;;;17.48;10.75;;;;;;;6.81;100.00;100384.09;1717373;81;21014;-65
2022/10/21 14:53:32;;;;;;;11.03;7.15;;;;;;;6.73;100.00;100385.80;1722347;81;21030;-65
2022/10/21 14:56:00;;;;;;;11.43;7.25;;;;;;;6.61;100.00;100387.62;1665813;86;21011;-66
2022/10/21 14:58:35;;;;;;;22.95;14.25;;;;;;;6.50;100.00;100383.30;1689191;85;21038;-65
2022/10/21 15:01:16;;;;;;;13.18;6.75;;;;;;;6.40;100.00;100385.73;1667986;83;21023;-65
2022/10/21 15:03:52;;;;;;;15.00;7.12;;;;;;;6.29;100.00;100383.80;1670641;84;21039;-65
2022/10/21 15:06:33;;;;;;;19.55;13.28;;;;;;;6.22;100.00;100387.64;1671544;85;21558;-65
2022/10/21 15:09:13;;;;;;;10.95;7.95;;;;;;;6.17;100.00;100384.25;1661593;84;21083;-65
2022/10/21 15:11:45;;;;;;;14.00;11.12;;;;;;;6.05;100.00;100386.61;1669491;84;21043;-65
2022/10/21 15:14:19;;;;;;;11.78;7.53;;;;;;;5.90;100.00;100388.34;1668980;84;21025;-64
2022/10/21 15:16:54;;;;;;;10.35;6.58;;;;;;;5.81;100.00;100388.32;1645121;86;21004;-65
2022/10/21 15:19:39;;;;;;;12.90;7.10;;;;;;;5.73;100.00;100397.55;1706971;82;22213;-66
2022/10/21 15:22:05;;;;;;;13.03;8.60;;;;;;;5.63;100.00;100397.23;1699372;82;21009;-65
2022/10/21 15:24:41;;;;;;;11.40;6.33;;;;;;;5.53;100.00;100400.43;1686016;83;21072;-65
2022/10/21 15:27:25;;;;;;;12.43;8.18;;;;;;;5.50;100.00;100403.58;1705512;82;21017;-65
2022/10/21 15:29:52;;;;;;;13.43;7.58;;;;;;;5.54;100.00;100410.71;1703976;83;20970;-65
2022/10/21 15:32:21;;;;;;;11.45;6.90;;;;;;;5.50;100.00;100405.45;1690821;82;21520;-65
2022/10/21 15:34:52;;;;;;;17.35;9.23;;;;;;;5.43;100.00;100401.98;1702761;82;20984;-65
2022/10/21 15:37:19;;;;;;;16.15;8.63;;;;;;;5.34;100.00;100398.77;1675765;82;20993;-65
2022/10/21 15:39:47;;;;;;;27.73;19.50;;;;;;;5.25;100.00;100399.23;1697720;82;21601;-65
2022/10/21 15:42:16;;;;;;;24.43;18.90;;;;;;;5.16;100.00;100409.50;1706088;82;21074;-65
2022/10/21 15:44:46;;;;;;;24.18;16.12;;;;;;;5.07;100.00;100408.62;1674383;84;21022;-65
2022/10/21 15:47:13;;;;;;;17.62;10.38;;;;;;;4.98;100.00;100411.62;1675925;84;21040;-65
2022/10/21 15:49:40;;;;;;;;;;;;;;;4.97;100.00;100415.35;1682736;84;21026;-65
